sensor_id;sensor_type;location;lat;lon;timestamp;temperature;humidity
33207;DHT22;19565;46.602;11.534;2023-06-04T00:01:56;17.80;99.90
33207;DHT22;19565;46.602;11.534;2023-06-04T00:04:26;17.80;99.90
33207;DHT22;19565;46.602;11.534;2023-06-04T00:06:54;17.80;99.90
33207;DHT22;19565;46.602;11.534;2023-06-04T00:09:22;17.70;99.90
33207;DHT22;19565;46.602;11.534;2023-06-04T00:11:50;17.80;99.90
33207;DHT22;19565;46.602;11.534;2023-06-04T00:14:18;17.80;99.90
33207;DHT22;19565;46.602;11.534;2023-06-04T00:16:46;17.80;99.90
33207;DHT22;19565;46.602;11.534;2023-06-04T00:19:15;17.90;99.90
33207;DHT22;19565;46.602;11.534;2023-06-04T00:21:45;17.80;99.90
33207;DHT22;19565;46.602;11.534;2023-06-04T00:24:13;17.90;99.90
33207;DHT22;19565;46.602;11.534;2023-06-04T00:26:41;17.90;99.90
33207;DHT22;19565;46.602;11.534;2023-06-04T00:29:09;18.00;99.90
33207;DHT22;19565;46.602;11.534;2023-06-04T00:31:37;17.80;99.90
33207;DHT22;19565;46.602;11.534;2023-06-04T00:34:05;17.50;99.90
33207;DHT22;19565;46.602;11.534;2023-06-04T00:36:33;17.20;99.90
33207;DHT22;19565;46.602;11.534;2023-06-04T00:39:03;17.20;99.90
33207;DHT22;19565;46.602;11.534;2023-06-04T00:41:31;17.20;99.90
33207;DHT22;19565;46.602;11.534;2023-06-04T00:43:59;17.20;99.90
33207;DHT22;19565;46.602;11.534;2023-06-04T00:46:29;17.10;99.90
33207;DHT22;19565;46.602;11.534;2023-06-04T00:48:58;17.10;99.90
33207;DHT22;19565;46.602;11.534;2023-06-04T00:51:26;17.20;99.90
33207;DHT22;19565;46.602;11.534;2023-06-04T00:53:58;17.20;99.90
33207;DHT22;19565;46.602;11.534;2023-06-04T00:56:29;17.20;99.90
33207;DHT22;19565;46.602;11.534;2023-06-04T00:58:57;17.20;99.90
33207;DHT22;19565;46.602;11.534;2023-06-04T01:01:31;17.30;99.90
33207;DHT22;19565;46.602;11.534;2023-06-04T01:04:04;17.40;99.90
33207;DHT22;19565;46.602;11.534;2023-06-04T01:06:37;17.50;99.90
33207;DHT22;19565;46.602;11.534;2023-06-04T01:09:06;17.60;99.90
33207;DHT22;19565;46.602;11.534;2023-06-04T01:11:37;17.60;99.90
33207;DHT22;19565;46.602;11.534;2023-06-04T01:14:07;17.50;99.90
33207;DHT22;19565;46.602;11.534;2023-06-04T01:16:39;17.50;99.90
33207;DHT22;19565;46.602;11.534;2023-06-04T01:19:27;17.50;99.90
33207;DHT22;19565;46.602;11.534;2023-06-04T01:22:07;17.50;99.90
33207;DHT22;19565;46.602;11.534;2023-06-04T01:24:41;17.50;99.90
33207;DHT22;19565;46.602;11.534;2023-06-04T01:27:13;17.40;99.90
33207;DHT22;19565;46.602;11.534;2023-06-04T01:29:42;17.00;99.90
33207;DHT22;19565;46.602;11.534;2023-06-04T01:32:11;17.00;99.90
33207;DHT22;19565;46.602;11.534;2023-06-04T01:34:44;17.00;99.90
33207;DHT22;19565;46.602;11.534;2023-06-04T01:37:12;16.90;99.90
33207;DHT22;19565;46.602;11.534;2023-06-04T01:39:41;17.00;99.90
33207;DHT22;19565;46.602;11.534;2023-06-04T01:42:09;16.90;99.90
33207;DHT22;19565;46.602;11.534;2023-06-04T01:44:38;16.90;99.90
33207;DHT22;19565;46.602;11.534;2023-06-04T01:47:06;16.90;99.90
33207;DHT22;19565;46.602;11.534;2023-06-04T01:49:34;16.90;99.90
33207;DHT22;19565;46.602;11.534;2023-06-04T01:52:05;17.00;99.90
33207;DHT22;19565;46.602;11.534;2023-06-04T01:54:33;17.10;99.90
33207;DHT22;19565;46.602;11.534;2023-06-04T01:57:02;17.30;99.90
33207;DHT22;19565;46.602;11.534;2023-06-04T01:59:30;17.40;99.90
33207;DHT22;19565;46.602;11.534;2023-06-04T02:02:01;17.50;99.90
33207;DHT22;19565;46.602;11.534;2023-06-04T02:04:30;17.40;99.90
33207;DHT22;19565;46.602;11.534;2023-06-04T02:06:58;17.50;99.90
33207;DHT22;19565;46.602;11.534;2023-06-04T02:09:26;17.50;99.90
33207;DHT22;19565;46.602;11.534;2023-06-04T02:11:54;17.60;99.90
33207;DHT22;19565;46.602;11.534;2023-06-04T02:14:22;17.60;99.90
33207;DHT22;19565;46.602;11.534;2023-06-04T02:16:50;17.70;99.90
33207;DHT22;19565;46.602;11.534;2023-06-04T02:19:26;17.70;99.90
33207;DHT22;19565;46.602;11.534;2023-06-04T02:21:54;17.70;99.90
33207;DHT22;19565;46.602;11.534;2023-06-04T02:24:22;17.70;99.90
33207;DHT22;19565;46.602;11.534;2023-06-04T02:26:50;17.70;99.90
33207;DHT22;19565;46.602;11.534;2023-06-04T02:29:18;17.40;99.90
33207;DHT22;19565;46.602;11.534;2023-06-04T02:31:46;17.20;99.90
33207;DHT22;19565;46.602;11.534;2023-06-04T02:34:14;17.00;99.90
33207;DHT22;19565;46.602;11.534;2023-06-04T02:36:43;16.80;99.90
33207;DHT22;19565;46.602;11.534;2023-06-04T02:39:17;16.80;99.90
33207;DHT22;19565;46.602;11.534;2023-06-04T02:41:45;16.70;99.90
33207;DHT22;19565;46.602;11.534;2023-06-04T02:44:13;16.60;99.90
33207;DHT22;19565;46.602;11.534;2023-06-04T02:46:41;16.60;99.90
33207;DHT22;19565;46.602;11.534;2023-06-04T02:49:10;16.50;99.90
33207;DHT22;19565;46.602;11.534;2023-06-04T02:51:40;16.50;99.90
33207;DHT22;19565;46.602;11.534;2023-06-04T02:54:09;16.50;99.90
33207;DHT22;19565;46.602;11.534;2023-06-04T02:56:37;16.50;99.90
33207;DHT22;19565;46.602;11.534;2023-06-04T02:59:06;16.50;99.90
33207;DHT22;19565;46.602;11.534;2023-06-04T03:01:39;16.60;99.90
33207;DHT22;19565;46.602;11.534;2023-06-04T03:04:07;16.70;99.90
33207;DHT22;19565;46.602;11.534;2023-06-04T03:06:37;16.80;99.90
33207;DHT22;19565;46.602;11.534;2023-06-04T03:09:05;16.70;99.90
33207;DHT22;19565;46.602;11.534;2023-06-04T03:11:35;16.60;99.90
33207;DHT22;19565;46.602;11.534;2023-06-04T03:14:03;16.60;99.90
33207;DHT22;19565;46.602;11.534;2023-06-04T03:16:31;16.70;99.90
33207;DHT22;19565;46.602;11.534;2023-06-04T03:19:00;16.70;99.90
33207;DHT22;19565;46.602;11.534;2023-06-04T03:21:28;16.60;99.90
33207;DHT22;19565;46.602;11.534;2023-06-04T03:23:56;16.60;99.90
33207;DHT22;19565;46.602;11.534;2023-06-04T03:26:25;16.70;99.90
33207;DHT22;19565;46.602;11.534;2023-06-04T03:28:54;16.80;99.90
33207;DHT22;19565;46.602;11.534;2023-06-04T03:31:22;16.70;99.90
33207;DHT22;19565;46.602;11.534;2023-06-04T03:33:50;16.70;99.90
33207;DHT22;19565;46.602;11.534;2023-06-04T03:36:18;16.70;99.90
33207;DHT22;19565;46.602;11.534;2023-06-04T03:38:47;16.70;99.90
33207;DHT22;19565;46.602;11.534;2023-06-04T03:41:15;16.80;99.90
33207;DHT22;19565;46.602;11.534;2023-06-04T03:43:43;16.80;99.90
33207;DHT22;19565;46.602;11.534;2023-06-04T03:46:13;16.80;99.90
33207;DHT22;19565;46.602;11.534;2023-06-04T03:48:41;16.90;99.90
33207;DHT22;19565;46.602;11.534;2023-06-04T03:51:11;16.90;99.90
33207;DHT22;19565;46.602;11.534;2023-06-04T03:53:39;16.90;99.90
33207;DHT22;19565;46.602;11.534;2023-06-04T03:56:09;17.00;99.90
33207;DHT22;19565;46.602;11.534;2023-06-04T03:58:37;17.00;99.90
33207;DHT22;19565;46.602;11.534;2023-06-04T04:01:05;16.90;99.90
33207;DHT22;19565;46.602;11.534;2023-06-04T04:03:35;16.80;99.90
33207;DHT22;19565;46.602;11.534;2023-06-04T04:06:04;16.70;99.90
33207;DHT22;19565;46.602;11.534;2023-06-04T04:08:32;16.60;99.90
33207;DHT22;19565;46.602;11.534;2023-06-04T04:11:01;16.50;99.90
33207;DHT22;19565;46.602;11.534;2023-06-04T04:13:29;16.40;99.90
33207;DHT22;19565;46.602;11.534;2023-06-04T04:15:57;16.40;99.90
33207;DHT22;19565;46.602;11.534;2023-06-04T04:18:25;16.30;99.90
33207;DHT22;19565;46.602;11.534;2023-06-04T04:20:54;16.50;99.90
33207;DHT22;19565;46.602;11.534;2023-06-04T04:23:22;16.70;99.90
33207;DHT22;19565;46.602;11.534;2023-06-04T04:25:50;16.80;99.90
33207;DHT22;19565;46.602;11.534;2023-06-04T04:28:20;16.90;99.90
33207;DHT22;19565;46.602;11.534;2023-06-04T04:30:48;16.90;99.90
33207;DHT22;19565;46.602;11.534;2023-06-04T04:33:16;16.90;99.90
33207;DHT22;19565;46.602;11.534;2023-06-04T04:35:44;16.90;99.90
33207;DHT22;19565;46.602;11.534;2023-06-04T04:38:16;16.90;99.90
33207;DHT22;19565;46.602;11.534;2023-06-04T04:40:44;16.90;99.90
33207;DHT22;19565;46.602;11.534;2023-06-04T04:43:14;16.80;99.90
33207;DHT22;19565;46.602;11.534;2023-06-04T04:45:42;16.70;99.90
33207;DHT22;19565;46.602;11.534;2023-06-04T04:48:10;16.80;99.90
33207;DHT22;19565;46.602;11.534;2023-06-04T04:50:38;16.90;99.90
33207;DHT22;19565;46.602;11.534;2023-06-04T04:53:07;17.00;99.90
33207;DHT22;19565;46.602;11.534;2023-06-04T04:55:36;17.00;99.90
33207;DHT22;19565;46.602;11.534;2023-06-04T04:58:04;17.00;99.90
33207;DHT22;19565;46.602;11.534;2023-06-04T05:00:33;17.00;99.90
33207;DHT22;19565;46.602;11.534;2023-06-04T05:03:01;17.10;99.90
33207;DHT22;19565;46.602;11.534;2023-06-04T05:05:29;17.20;99.90
33207;DHT22;19565;46.602;11.534;2023-06-04T05:07:57;17.30;99.90
33207;DHT22;19565;46.602;11.534;2023-06-04T05:10:25;17.40;99.90
33207;DHT22;19565;46.602;11.534;2023-06-04T05:12:56;17.50;99.90
33207;DHT22;19565;46.602;11.534;2023-06-04T05:15:25;17.50;99.90
33207;DHT22;19565;46.602;11.534;2023-06-04T05:17:54;17.50;99.90
33207;DHT22;19565;46.602;11.534;2023-06-04T05:20:23;17.30;99.90
33207;DHT22;19565;46.602;11.534;2023-06-04T05:22:51;17.20;99.90
33207;DHT22;19565;46.602;11.534;2023-06-04T05:25:19;17.10;99.90
33207;DHT22;19565;46.602;11.534;2023-06-04T05:27:47;17.20;99.90
33207;DHT22;19565;46.602;11.534;2023-06-04T05:30:17;17.20;99.90
33207;DHT22;19565;46.602;11.534;2023-06-04T05:32:45;17.10;99.90
33207;DHT22;19565;46.602;11.534;2023-06-04T05:35:13;17.00;99.90
33207;DHT22;19565;46.602;11.534;2023-06-04T05:37:42;16.90;99.90
33207;DHT22;19565;46.602;11.534;2023-06-04T05:40:12;17.00;99.90
33207;DHT22;19565;46.602;11.534;2023-06-04T05:42:41;17.00;99.90
33207;DHT22;19565;46.602;11.534;2023-06-04T05:45:09;17.00;99.90
33207;DHT22;19565;46.602;11.534;2023-06-04T05:47:39;16.90;99.90
33207;DHT22;19565;46.602;11.534;2023-06-04T05:50:08;16.90;99.90
33207;DHT22;19565;46.602;11.534;2023-06-04T05:52:37;16.90;99.90
33207;DHT22;19565;46.602;11.534;2023-06-04T05:55:05;16.90;99.90
33207;DHT22;19565;46.602;11.534;2023-06-04T05:57:34;16.70;99.90
33207;DHT22;19565;46.602;11.534;2023-06-04T06:00:03;16.60;99.90
33207;DHT22;19565;46.602;11.534;2023-06-04T06:02:35;16.60;99.90
33207;DHT22;19565;46.602;11.534;2023-06-04T06:05:06;16.60;99.90
33207;DHT22;19565;46.602;11.534;2023-06-04T06:07:35;16.60;99.90
33207;DHT22;19565;46.602;11.534;2023-06-04T06:10:04;16.50;99.90
33207;DHT22;19565;46.602;11.534;2023-06-04T06:12:32;16.50;99.90
33207;DHT22;19565;46.602;11.534;2023-06-04T06:15:00;16.70;99.90
33207;DHT22;19565;46.602;11.534;2023-06-04T06:17:28;16.70;99.90
33207;DHT22;19565;46.602;11.534;2023-06-04T06:19:56;16.80;99.90
33207;DHT22;19565;46.602;11.534;2023-06-04T06:22:26;17.00;99.90
33207;DHT22;19565;46.602;11.534;2023-06-04T06:24:54;16.80;99.90
33207;DHT22;19565;46.602;11.534;2023-06-04T06:27:22;16.80;99.90
33207;DHT22;19565;46.602;11.534;2023-06-04T06:29:50;16.80;99.90
33207;DHT22;19565;46.602;11.534;2023-06-04T06:32:18;16.80;99.90
33207;DHT22;19565;46.602;11.534;2023-06-04T06:34:46;16.80;99.90
33207;DHT22;19565;46.602;11.534;2023-06-04T06:37:14;16.90;99.90
33207;DHT22;19565;46.602;11.534;2023-06-04T06:39:43;16.90;99.90
33207;DHT22;19565;46.602;11.534;2023-06-04T06:42:11;17.00;99.90
33207;DHT22;19565;46.602;11.534;2023-06-04T06:44:39;17.10;99.90
33207;DHT22;19565;46.602;11.534;2023-06-04T06:47:08;17.20;99.90
33207;DHT22;19565;46.602;11.534;2023-06-04T06:49:37;17.20;99.90
33207;DHT22;19565;46.602;11.534;2023-06-04T06:52:05;17.30;99.90
33207;DHT22;19565;46.602;11.534;2023-06-04T06:54:33;17.30;99.90
33207;DHT22;19565;46.602;11.534;2023-06-04T06:57:03;17.30;99.90
33207;DHT22;19565;46.602;11.534;2023-06-04T06:59:35;17.30;99.90
33207;DHT22;19565;46.602;11.534;2023-06-04T07:02:04;17.20;99.90
33207;DHT22;19565;46.602;11.534;2023-06-04T07:04:32;17.30;99.90
33207;DHT22;19565;46.602;11.534;2023-06-04T07:07:01;17.40;99.90
33207;DHT22;19565;46.602;11.534;2023-06-04T07:09:29;17.30;99.90
33207;DHT22;19565;46.602;11.534;2023-06-04T07:11:57;17.30;99.90
33207;DHT22;19565;46.602;11.534;2023-06-04T07:14:27;17.40;99.90
33207;DHT22;19565;46.602;11.534;2023-06-04T07:16:55;17.50;99.90
33207;DHT22;19565;46.602;11.534;2023-06-04T07:19:23;17.50;99.90
33207;DHT22;19565;46.602;11.534;2023-06-04T07:21:54;17.50;99.90
33207;DHT22;19565;46.602;11.534;2023-06-04T07:24:22;17.60;99.90
33207;DHT22;19565;46.602;11.534;2023-06-04T07:26:50;17.50;99.90
33207;DHT22;19565;46.602;11.534;2023-06-04T07:29:18;17.70;99.90
33207;DHT22;19565;46.602;11.534;2023-06-04T07:31:47;17.80;99.90
33207;DHT22;19565;46.602;11.534;2023-06-04T07:34:16;17.80;99.90
33207;DHT22;19565;46.602;11.534;2023-06-04T07:36:44;17.80;99.90
33207;DHT22;19565;46.602;11.534;2023-06-04T07:39:12;17.80;99.90
33207;DHT22;19565;46.602;11.534;2023-06-04T07:41:40;17.70;99.90
33207;DHT22;19565;46.602;11.534;2023-06-04T07:44:08;17.70;99.90
33207;DHT22;19565;46.602;11.534;2023-06-04T07:46:36;17.80;99.90
33207;DHT22;19565;46.602;11.534;2023-06-04T07:49:06;17.80;99.90
33207;DHT22;19565;46.602;11.534;2023-06-04T07:51:34;17.70;99.90
33207;DHT22;19565;46.602;11.534;2023-06-04T07:54:04;17.70;99.90
33207;DHT22;19565;46.602;11.534;2023-06-04T07:56:32;17.60;99.90
33207;DHT22;19565;46.602;11.534;2023-06-04T07:59:00;17.70;99.90
33207;DHT22;19565;46.602;11.534;2023-06-04T08:01:28;17.70;99.90
33207;DHT22;19565;46.602;11.534;2023-06-04T08:03:56;17.80;99.90
33207;DHT22;19565;46.602;11.534;2023-06-04T08:06:27;17.70;99.90
33207;DHT22;19565;46.602;11.534;2023-06-04T08:08:55;17.70;99.90
33207;DHT22;19565;46.602;11.534;2023-06-04T08:11:23;17.70;99.90
33207;DHT22;19565;46.602;11.534;2023-06-04T08:13:51;17.70;99.90
33207;DHT22;19565;46.602;11.534;2023-06-04T08:16:19;17.80;99.90
33207;DHT22;19565;46.602;11.534;2023-06-04T08:18:47;17.80;99.90
33207;DHT22;19565;46.602;11.534;2023-06-04T08:21:26;17.80;99.90
33207;DHT22;19565;46.602;11.534;2023-06-04T08:23:55;17.80;99.90
33207;DHT22;19565;46.602;11.534;2023-06-04T08:26:23;17.90;99.90
33207;DHT22;19565;46.602;11.534;2023-06-04T08:28:55;17.90;99.90
33207;DHT22;19565;46.602;11.534;2023-06-04T08:31:23;17.80;99.90
33207;DHT22;19565;46.602;11.534;2023-06-04T08:33:51;17.90;99.90
33207;DHT22;19565;46.602;11.534;2023-06-04T08:36:19;17.90;99.90
33207;DHT22;19565;46.602;11.534;2023-06-04T08:38:49;17.80;99.90
33207;DHT22;19565;46.602;11.534;2023-06-04T08:41:24;17.80;99.90
33207;DHT22;19565;46.602;11.534;2023-06-04T08:43:56;17.80;99.90
33207;DHT22;19565;46.602;11.534;2023-06-04T08:46:28;17.90;99.90
33207;DHT22;19565;46.602;11.534;2023-06-04T08:49:00;17.80;99.90
33207;DHT22;19565;46.602;11.534;2023-06-04T08:51:33;18.00;99.90
33207;DHT22;19565;46.602;11.534;2023-06-04T08:54:05;18.00;99.90
33207;DHT22;19565;46.602;11.534;2023-06-04T08:56:34;18.10;99.90
33207;DHT22;19565;46.602;11.534;2023-06-04T08:59:04;18.30;99.90
33207;DHT22;19565;46.602;11.534;2023-06-04T09:01:34;18.40;99.90
33207;DHT22;19565;46.602;11.534;2023-06-04T09:04:05;18.50;99.90
33207;DHT22;19565;46.602;11.534;2023-06-04T09:06:39;18.60;99.90
33207;DHT22;19565;46.602;11.534;2023-06-04T09:09:10;18.60;99.90
33207;DHT22;19565;46.602;11.534;2023-06-04T09:11:46;18.50;99.90
33207;DHT22;19565;46.602;11.534;2023-06-04T09:14:16;18.60;99.90
33207;DHT22;19565;46.602;11.534;2023-06-04T09:16:46;18.70;99.90
33207;DHT22;19565;46.602;11.534;2023-06-04T09:19:14;18.80;99.90
33207;DHT22;19565;46.602;11.534;2023-06-04T09:21:48;18.80;99.90
33207;DHT22;19565;46.602;11.534;2023-06-04T09:24:17;18.90;99.90
33207;DHT22;19565;46.602;11.534;2023-06-04T09:26:46;18.90;99.90
33207;DHT22;19565;46.602;11.534;2023-06-04T09:29:14;19.00;99.90
33207;DHT22;19565;46.602;11.534;2023-06-04T09:31:45;19.00;99.90
33207;DHT22;19565;46.602;11.534;2023-06-04T09:34:14;18.90;99.90
33207;DHT22;19565;46.602;11.534;2023-06-04T09:36:42;18.90;99.90
33207;DHT22;19565;46.602;11.534;2023-06-04T09:39:18;18.90;99.90
33207;DHT22;19565;46.602;11.534;2023-06-04T09:41:57;18.90;99.90
33207;DHT22;19565;46.602;11.534;2023-06-04T09:44:25;18.90;99.90
33207;DHT22;19565;46.602;11.534;2023-06-04T09:46:54;18.90;99.90
33207;DHT22;19565;46.602;11.534;2023-06-04T09:49:22;18.90;99.90
33207;DHT22;19565;46.602;11.534;2023-06-04T09:51:51;18.90;99.90
33207;DHT22;19565;46.602;11.534;2023-06-04T09:54:20;18.80;99.90
33207;DHT22;19565;46.602;11.534;2023-06-04T09:56:48;18.80;99.90
33207;DHT22;19565;46.602;11.534;2023-06-04T09:59:16;18.80;99.90
33207;DHT22;19565;46.602;11.534;2023-06-04T10:01:45;18.80;99.90
33207;DHT22;19565;46.602;11.534;2023-06-04T10:04:14;18.80;99.90
33207;DHT22;19565;46.602;11.534;2023-06-04T10:06:43;18.80;99.90
33207;DHT22;19565;46.602;11.534;2023-06-04T10:09:13;18.80;99.90
33207;DHT22;19565;46.602;11.534;2023-06-04T10:11:47;18.80;99.90
33207;DHT22;19565;46.602;11.534;2023-06-04T10:14:21;18.80;99.90
33207;DHT22;19565;46.602;11.534;2023-06-04T10:16:51;18.80;99.90
33207;DHT22;19565;46.602;11.534;2023-06-04T10:19:19;18.80;99.90
33207;DHT22;19565;46.602;11.534;2023-06-04T10:21:48;18.80;99.90
33207;DHT22;19565;46.602;11.534;2023-06-04T10:24:16;18.90;99.90
33207;DHT22;19565;46.602;11.534;2023-06-04T10:26:45;18.90;99.90
33207;DHT22;19565;46.602;11.534;2023-06-04T10:29:14;18.90;99.90
33207;DHT22;19565;46.602;11.534;2023-06-04T10:31:42;18.90;99.90
33207;DHT22;19565;46.602;11.534;2023-06-04T10:34:12;19.00;99.90
33207;DHT22;19565;46.602;11.534;2023-06-04T10:36:44;19.00;99.90
33207;DHT22;19565;46.602;11.534;2023-06-04T10:39:12;19.10;99.90
33207;DHT22;19565;46.602;11.534;2023-06-04T10:41:40;19.20;99.90
33207;DHT22;19565;46.602;11.534;2023-06-04T10:44:10;19.20;99.90
33207;DHT22;19565;46.602;11.534;2023-06-04T10:46:41;19.30;99.90
33207;DHT22;19565;46.602;11.534;2023-06-04T10:49:10;19.40;99.90
33207;DHT22;19565;46.602;11.534;2023-06-04T10:51:39;19.40;99.90
33207;DHT22;19565;46.602;11.534;2023-06-04T10:54:07;19.40;99.90
33207;DHT22;19565;46.602;11.534;2023-06-04T10:56:36;19.40;99.90
33207;DHT22;19565;46.602;11.534;2023-06-04T10:59:15;19.40;99.90
33207;DHT22;19565;46.602;11.534;2023-06-04T11:01:44;19.40;99.90
33207;DHT22;19565;46.602;11.534;2023-06-04T11:04:20;19.40;99.90
33207;DHT22;19565;46.602;11.534;2023-06-04T11:06:59;19.40;99.90
33207;DHT22;19565;46.602;11.534;2023-06-04T11:09:28;19.40;99.90
33207;DHT22;19565;46.602;11.534;2023-06-04T11:11:59;19.40;99.90
33207;DHT22;19565;46.602;11.534;2023-06-04T11:14:29;19.40;99.90
33207;DHT22;19565;46.602;11.534;2023-06-04T11:16:57;19.40;99.90
33207;DHT22;19565;46.602;11.534;2023-06-04T11:19:36;19.40;99.90
33207;DHT22;19565;46.602;11.534;2023-06-04T11:22:04;19.40;99.90
33207;DHT22;19565;46.602;11.534;2023-06-04T11:24:33;19.40;99.90
33207;DHT22;19565;46.602;11.534;2023-06-04T11:27:01;19.40;99.90
33207;DHT22;19565;46.602;11.534;2023-06-04T11:29:51;19.40;99.90
33207;DHT22;19565;46.602;11.534;2023-06-04T11:32:22;19.40;99.90
33207;DHT22;19565;46.602;11.534;2023-06-04T11:34:51;19.50;99.90
33207;DHT22;19565;46.602;11.534;2023-06-04T11:37:19;19.60;99.90
33207;DHT22;19565;46.602;11.534;2023-06-04T11:39:47;19.60;99.90
33207;DHT22;19565;46.602;11.534;2023-06-04T11:42:16;19.70;99.90
33207;DHT22;19565;46.602;11.534;2023-06-04T11:44:45;19.80;99.90
33207;DHT22;19565;46.602;11.534;2023-06-04T11:47:16;19.80;99.90
33207;DHT22;19565;46.602;11.534;2023-06-04T11:49:45;19.90;99.90
33207;DHT22;19565;46.602;11.534;2023-06-04T11:52:14;19.90;99.90
33207;DHT22;19565;46.602;11.534;2023-06-04T11:54:42;20.00;99.90
33207;DHT22;19565;46.602;11.534;2023-06-04T11:57:10;20.00;99.90
33207;DHT22;19565;46.602;11.534;2023-06-04T11:59:38;20.10;99.90
33207;DHT22;19565;46.602;11.534;2023-06-04T12:02:07;20.10;99.90
33207;DHT22;19565;46.602;11.534;2023-06-04T12:04:36;20.20;99.90
33207;DHT22;19565;46.602;11.534;2023-06-04T12:07:05;20.30;99.90
33207;DHT22;19565;46.602;11.534;2023-06-04T12:09:35;20.30;99.90
33207;DHT22;19565;46.602;11.534;2023-06-04T12:12:06;20.30;99.90
33207;DHT22;19565;46.602;11.534;2023-06-04T12:14:35;20.20;99.90
33207;DHT22;19565;46.602;11.534;2023-06-04T12:17:06;20.20;99.90
33207;DHT22;19565;46.602;11.534;2023-06-04T12:19:47;20.20;99.90
33207;DHT22;19565;46.602;11.534;2023-06-04T12:22:15;20.20;99.90
33207;DHT22;19565;46.602;11.534;2023-06-04T12:24:48;20.10;99.90
33207;DHT22;19565;46.602;11.534;2023-06-04T12:27:21;20.10;99.90
33207;DHT22;19565;46.602;11.534;2023-06-04T12:29:57;20.10;99.90
33207;DHT22;19565;46.602;11.534;2023-06-04T12:32:26;20.10;99.90
33207;DHT22;19565;46.602;11.534;2023-06-04T12:34:56;20.10;99.90
33207;DHT22;19565;46.602;11.534;2023-06-04T12:37:24;20.10;99.90
33207;DHT22;19565;46.602;11.534;2023-06-04T12:39:54;20.20;99.90
33207;DHT22;19565;46.602;11.534;2023-06-04T12:42:22;20.10;99.90
33207;DHT22;19565;46.602;11.534;2023-06-04T12:44:51;20.20;99.90
33207;DHT22;19565;46.602;11.534;2023-06-04T12:47:19;20.10;99.90
33207;DHT22;19565;46.602;11.534;2023-06-04T12:49:48;20.20;99.90
33207;DHT22;19565;46.602;11.534;2023-06-04T12:52:17;20.10;99.90
33207;DHT22;19565;46.602;11.534;2023-06-04T12:54:47;20.10;99.90
33207;DHT22;19565;46.602;11.534;2023-06-04T12:57:15;20.00;99.90
33207;DHT22;19565;46.602;11.534;2023-06-04T12:59:43;20.00;99.90
33207;DHT22;19565;46.602;11.534;2023-06-04T13:02:11;19.90;99.90
33207;DHT22;19565;46.602;11.534;2023-06-04T13:04:39;19.80;99.90
33207;DHT22;19565;46.602;11.534;2023-06-04T13:07:11;19.70;99.90
33207;DHT22;19565;46.602;11.534;2023-06-04T13:09:41;19.70;99.90
33207;DHT22;19565;46.602;11.534;2023-06-04T13:12:09;19.60;99.90
33207;DHT22;19565;46.602;11.534;2023-06-04T13:14:37;19.60;99.90
33207;DHT22;19565;46.602;11.534;2023-06-04T13:17:05;19.50;99.90
33207;DHT22;19565;46.602;11.534;2023-06-04T13:19:47;19.50;99.90
33207;DHT22;19565;46.602;11.534;2023-06-04T13:22:15;19.40;99.90
33207;DHT22;19565;46.602;11.534;2023-06-04T13:24:44;19.30;99.90
33207;DHT22;19565;46.602;11.534;2023-06-04T13:27:13;19.30;99.90
33207;DHT22;19565;46.602;11.534;2023-06-04T13:29:41;19.20;99.90
33207;DHT22;19565;46.602;11.534;2023-06-04T13:32:10;19.10;99.90
33207;DHT22;19565;46.602;11.534;2023-06-04T13:34:39;19.00;99.90
33207;DHT22;19565;46.602;11.534;2023-06-04T13:37:07;18.90;99.90
33207;DHT22;19565;46.602;11.534;2023-06-04T13:39:38;18.90;99.90
33207;DHT22;19565;46.602;11.534;2023-06-04T13:42:07;18.80;99.90
33207;DHT22;19565;46.602;11.534;2023-06-04T13:44:35;18.80;99.90
33207;DHT22;19565;46.602;11.534;2023-06-04T13:47:04;18.80;99.90
33207;DHT22;19565;46.602;11.534;2023-06-04T13:49:33;18.70;99.90
33207;DHT22;19565;46.602;11.534;2023-06-04T13:52:01;18.70;99.90
33207;DHT22;19565;46.602;11.534;2023-06-04T13:54:29;18.60;99.90
33207;DHT22;19565;46.602;11.534;2023-06-04T13:57:01;18.60;99.90
33207;DHT22;19565;46.602;11.534;2023-06-04T13:59:31;18.50;99.90
33207;DHT22;19565;46.602;11.534;2023-06-04T14:01:59;18.50;99.90
33207;DHT22;19565;46.602;11.534;2023-06-04T14:04:27;18.40;99.90
33207;DHT22;19565;46.602;11.534;2023-06-04T14:06:55;18.40;99.90
33207;DHT22;19565;46.602;11.534;2023-06-04T14:09:24;18.30;99.90
33207;DHT22;19565;46.602;11.534;2023-06-04T14:11:52;18.30;99.90
33207;DHT22;19565;46.602;11.534;2023-06-04T14:14:21;18.20;99.90
33207;DHT22;19565;46.602;11.534;2023-06-04T14:16:50;18.30;99.90
33207;DHT22;19565;46.602;11.534;2023-06-04T14:19:24;18.30;99.90
33207;DHT22;19565;46.602;11.534;2023-06-04T14:21:52;18.40;99.90
33207;DHT22;19565;46.602;11.534;2023-06-04T14:24:20;18.30;99.90
33207;DHT22;19565;46.602;11.534;2023-06-04T14:26:48;18.40;99.90
33207;DHT22;19565;46.602;11.534;2023-06-04T14:29:16;18.30;99.90
33207;DHT22;19565;46.602;11.534;2023-06-04T14:31:44;18.40;99.90
33207;DHT22;19565;46.602;11.534;2023-06-04T14:34:14;18.30;99.90
33207;DHT22;19565;46.602;11.534;2023-06-04T14:36:42;18.40;99.90
33207;DHT22;19565;46.602;11.534;2023-06-04T14:39:11;18.40;99.90
33207;DHT22;19565;46.602;11.534;2023-06-04T14:41:39;18.40;99.90
33207;DHT22;19565;46.602;11.534;2023-06-04T14:44:07;18.40;99.90
33207;DHT22;19565;46.602;11.534;2023-06-04T14:46:35;18.40;99.90
33207;DHT22;19565;46.602;11.534;2023-06-04T14:49:03;18.40;99.90
33207;DHT22;19565;46.602;11.534;2023-06-04T14:51:32;18.40;99.90
33207;DHT22;19565;46.602;11.534;2023-06-04T14:54:00;18.40;99.90
33207;DHT22;19565;46.602;11.534;2023-06-04T14:56:28;18.50;99.90
33207;DHT22;19565;46.602;11.534;2023-06-04T14:58:57;18.40;99.90
33207;DHT22;19565;46.602;11.534;2023-06-04T15:01:25;18.50;99.90
33207;DHT22;19565;46.602;11.534;2023-06-04T15:03:53;18.40;99.90
33207;DHT22;19565;46.602;11.534;2023-06-04T15:06:21;18.50;99.90
33207;DHT22;19565;46.602;11.534;2023-06-04T15:08:50;18.50;99.90
33207;DHT22;19565;46.602;11.534;2023-06-04T15:11:19;18.60;99.90
33207;DHT22;19565;46.602;11.534;2023-06-04T15:13:47;18.60;99.90
33207;DHT22;19565;46.602;11.534;2023-06-04T15:16:15;18.70;99.90
33207;DHT22;19565;46.602;11.534;2023-06-04T15:18:44;18.80;99.90
33207;DHT22;19565;46.602;11.534;2023-06-04T15:21:12;18.90;99.90
33207;DHT22;19565;46.602;11.534;2023-06-04T15:23:40;19.00;99.90
33207;DHT22;19565;46.602;11.534;2023-06-04T15:26:12;19.50;99.90
33207;DHT22;19565;46.602;11.534;2023-06-04T15:28:40;20.40;99.90